Terminal Aerodrome Forecast
Issued by NWS

Home | Current Version | Previous Version | Text Only | Print | Product List | Glossary On
Versions: 1 2 3 4 5 6 7 8 9 10 11 12 13
837
FTUS43 KEAX 060520
TAFSTJ
TAF
KSTJ 060520Z 0606/0706 33011KT P6SM SCT020 OVC040
     FM061100 33016G24KT P6SM SCT020 OVC040
     FM061400 32014G22KT P6SM SCT120
     FM062200 30008KT P6SM BKN200=

USA.gov is the U.S. government's official web portal to all federal, state and local government web resources and services.